Hampton, VA (23661)

11:37 AM EDT on October 30, 2014 (GMT -0400)
NNFD Fire Station 1 | Change Station
CLOSE
Current Station
Personal Weather Station
Location: Newport News, VA
Elevation: 45 ft
Nearby Weather Stations

Elev 45 ft 36.98 °N, 76.43 °W | Updated 5 minutes ago

Clear
Clear
60.4 °F
Feels Like 60.4 °F
N
5.0
Wind Variable Wind from NW
Gusts 10.0 mph

Today
High -- | Low -- °F
--% Chance of Precip.
Yesterday
High -- | Low -- °F
Precip. -- in
7:27 AM 6:10 PM
Waxing Crescent, 45% visible
Pressure 30.07 in
Visibility 10.0 miles
Clouds Clear
Dew Point 52 °F
Humidity 75%
Rainfall 0.07 in
Snow Depth Not available.
UV 3 out of 12
Pollen .30 out of 12
Air Quality Not available.
Flu Activity Not available.
METAR KLFI 301458Z AUTO 02006KT 10SM CLR 15/11 A3005 RMK AO2 SLP183 T01510108 52012 $

More Conditions Fewer Conditions

Pressure 30.07 in
Visibility 10.0 miles
Clouds Clear
Dew Point 52 °F
Humidity 75%
Rainfall 0.07 in
Snow Depth Not available.
UV 3 out of 12
Pollen .30 out of 12
Air Quality Not available.
Flu Activity Not available.
METAR KLFI 301458Z AUTO 02006KT 10SM CLR 15/11 A3005 RMK AO2 SLP183 T01510108 52012 $

More Conditions Fewer Conditions

10-Day Weather Forecast

Almanac

Astronomy

Oct. 30, 2014 Rise Set
Actual Time
Civil Twilight
Nautical Twilight
Astronomical Twilight
Moon
Length of Visible Light
Length of Day
Tomorrow will be .
, % of the Moon is Illuminated

Today's Extremes

State Highs State Lows

Community

WunderPhotos

Upload Photos

1,766,387 photos uploaded!

WunderBlogs® & News

Nearby

Air Quality

  Air Quality AQ Index Pollutant
Not available.

Snow Depth

Station Depth Elevation

Earthquake Activity

City Distance Mag. Time & Date
Minimum magnitude displayed is 2.5.

Coastal Water Temperatures

Place Temperature

Nearby Weather Stations